LKVO METAR and TAF | Updated Today

LKVO METAR

Vodochody Airport

Observation time: 5:56 hr. ago

LKVO 251400Z 27005KT 170V290 9999 SCT033 20/11 Q1016

Need help? Read our tutorial on how to read METARs or read the parsed version below.

Vodochody Airport (LKVO) METAR

  • Weather conditions on Wed, 25 May 2022 14:00:00 +0000 (5:56 hr. ago):
  • Present conditions: Dry
  • Clouds: Scattered at 1006 meters
  • Visibility: Greater than 10 km
  • Wind: 270 degrees at 5 knots
  • Temperature: 20 celsius
  • Dew point: 11 celsius
  • Pressure: 1016 millibars
  • Remarks: None


Useful to know...